<?xml version="1.0" encoding="utf-8"?>
<gpx xmlns:xsi="http://www.w3.org/2001/XMLSchema-instance" xmlns:xsd="http://www.w3.org/2001/XMLSchema" version="1.1" creator="Shapelink.com" xmlns="http://www.topografix.com/GPX/1/1" xmlns:gpxtpx="http://www.garmin.com/xmlschemas/TrackPointExtension/v1">
  <metadata>
    <name>Övrigt 5.32 km, 2019-05-26</name>
    <desc></desc>
    <author><name>Marian Moron</name></author> 
    <time>2019-05-26T19:13:28Z</time>
  </metadata>
  <trk>
    <name>Övrigt 5.32 km, 2019-05-26</name>
    <trkseg>
      <trkpt lat="51.229865268089" lon="4.457877640468">
        <ele>0</ele>
        <time>2019-05-26T19:13:28Z</time>
      </trkpt>
      <trkpt lat="51.229971885857" lon="4.458400000476">
        <ele>0</ele>
        <time>2019-05-26T19:14:14Z</time>
      </trkpt>
      <trkpt lat="51.229986470363" lon="4.458885899219">
        <ele>0</ele>
        <time>2019-05-26T19:14:43Z</time>
      </trkpt>
      <trkpt lat="51.229945901967" lon="4.458921103199">
        <ele>0</ele>
        <time>2019-05-26T19:14:46Z</time>
      </trkpt>
      <trkpt lat="51.22966653324" lon="4.459063260223">
        <ele>0</ele>
        <time>2019-05-26T19:15:07Z</time>
      </trkpt>
      <trkpt lat="51.229560166929" lon="4.459087483914">
        <ele>0</ele>
        <time>2019-05-26T19:15:26Z</time>
      </trkpt>
      <trkpt lat="51.229284821514" lon="4.459152192182">
        <ele>0</ele>
        <time>2019-05-26T19:16:00Z</time>
      </trkpt>
      <trkpt lat="51.229168899837" lon="4.459181361194">
        <ele>0</ele>
        <time>2019-05-26T19:16:12Z</time>
      </trkpt>
      <trkpt lat="51.228845023221" lon="4.459247745842">
        <ele>0</ele>
        <time>2019-05-26T19:17:01Z</time>
      </trkpt>
      <trkpt lat="51.228657687756" lon="4.459225785264">
        <ele>0</ele>
        <time>2019-05-26T19:17:29Z</time>
      </trkpt>
      <trkpt lat="51.228534390007" lon="4.458591443072">
        <ele>0</ele>
        <time>2019-05-26T19:18:00Z</time>
      </trkpt>
      <trkpt lat="51.228565067761" lon="4.458361862831">
        <ele>0</ele>
        <time>2019-05-26T19:18:10Z</time>
      </trkpt>
      <trkpt lat="51.228537575129" lon="4.458385332151">
        <ele>0</ele>
        <time>2019-05-26T19:18:20Z</time>
      </trkpt>
      <trkpt lat="51.228116971387" lon="4.458488932435">
        <ele>0</ele>
        <time>2019-05-26T19:18:52Z</time>
      </trkpt>
      <trkpt lat="51.227954446346" lon="4.458579624593">
        <ele>0</ele>
        <time>2019-05-26T19:19:12Z</time>
      </trkpt>
      <trkpt lat="51.227769038718" lon="4.458632598201">
        <ele>0</ele>
        <time>2019-05-26T19:19:34Z</time>
      </trkpt>
      <trkpt lat="51.227556641372" lon="4.458741981996">
        <ele>0</ele>
        <time>2019-05-26T19:19:59Z</time>
      </trkpt>
      <trkpt lat="51.227123632418" lon="4.459002156172">
        <ele>0</ele>
        <time>2019-05-26T19:20:29Z</time>
      </trkpt>
      <trkpt lat="51.227038388495" lon="4.459041970197">
        <ele>0</ele>
        <time>2019-05-26T19:20:38Z</time>
      </trkpt>
      <trkpt lat="51.226974937512" lon="4.459126208292">
        <ele>0</ele>
        <time>2019-05-26T19:20:48Z</time>
      </trkpt>
      <trkpt lat="51.226919197877" lon="4.459180606823">
        <ele>0</ele>
        <time>2019-05-26T19:21:12Z</time>
      </trkpt>
      <trkpt lat="51.226499683782" lon="4.459464417957">
        <ele>0</ele>
        <time>2019-05-26T19:21:44Z</time>
      </trkpt>
      <trkpt lat="51.226441429577" lon="4.459491742951">
        <ele>0</ele>
        <time>2019-05-26T19:21:51Z</time>
      </trkpt>
      <trkpt lat="51.226333303067" lon="4.459656614924">
        <ele>0</ele>
        <time>2019-05-26T19:22:09Z</time>
      </trkpt>
      <trkpt lat="51.226312264498" lon="4.459707912152">
        <ele>0</ele>
        <time>2019-05-26T19:22:18Z</time>
      </trkpt>
      <trkpt lat="51.226294327232" lon="4.459657872209">
        <ele>0</ele>
        <time>2019-05-26T19:22:21Z</time>
      </trkpt>
      <trkpt lat="51.226259793804" lon="4.459534155365">
        <ele>0</ele>
        <time>2019-05-26T19:22:27Z</time>
      </trkpt>
      <trkpt lat="51.2262668346" lon="4.459473805685">
        <ele>0</ele>
        <time>2019-05-26T19:22:30Z</time>
      </trkpt>
      <trkpt lat="51.22618636836" lon="4.459523342714">
        <ele>2</ele>
        <time>2019-05-26T19:22:49Z</time>
      </trkpt>
      <trkpt lat="51.226232971724" lon="4.459682179719">
        <ele>11</ele>
        <time>2019-05-26T19:23:08Z</time>
      </trkpt>
      <trkpt lat="51.226306480987" lon="4.459875801609">
        <ele>7.8</ele>
        <time>2019-05-26T19:23:20Z</time>
      </trkpt>
      <trkpt lat="51.22633137523" lon="4.459992310019">
        <ele>5.8</ele>
        <time>2019-05-26T19:23:26Z</time>
      </trkpt>
      <trkpt lat="51.226365321925" lon="4.460129270265">
        <ele>3.6</ele>
        <time>2019-05-26T19:23:43Z</time>
      </trkpt>
      <trkpt lat="51.226218554856" lon="4.459936402746">
        <ele>2.6</ele>
        <time>2019-05-26T19:24:06Z</time>
      </trkpt>
      <trkpt lat="51.226188380016" lon="4.459927853208">
        <ele>2.6</ele>
        <time>2019-05-26T19:24:09Z</time>
      </trkpt>
      <trkpt lat="51.226124929033" lon="4.459872197392">
        <ele>7.4</ele>
        <time>2019-05-26T19:24:19Z</time>
      </trkpt>
      <trkpt lat="51.225939856681" lon="4.45997043326">
        <ele>0.8</ele>
        <time>2019-05-26T19:24:46Z</time>
      </trkpt>
      <trkpt lat="51.225688651138" lon="4.460078056856">
        <ele>0</ele>
        <time>2019-05-26T19:25:17Z</time>
      </trkpt>
      <trkpt lat="51.225371899137" lon="4.460286514709">
        <ele>0</ele>
        <time>2019-05-26T19:25:59Z</time>
      </trkpt>
      <trkpt lat="51.224952217404" lon="4.460562949771">
        <ele>0</ele>
        <time>2019-05-26T19:26:34Z</time>
      </trkpt>
      <trkpt lat="51.224914163578" lon="4.46057393006">
        <ele>0</ele>
        <time>2019-05-26T19:26:38Z</time>
      </trkpt>
      <trkpt lat="51.224814586606" lon="4.460632268084">
        <ele>0</ele>
        <time>2019-05-26T19:26:48Z</time>
      </trkpt>
      <trkpt lat="51.224417619822" lon="4.460994282345">
        <ele>0</ele>
        <time>2019-05-26T19:27:32Z</time>
      </trkpt>
      <trkpt lat="51.22439934728" lon="4.461008531575">
        <ele>0</ele>
        <time>2019-05-26T19:27:34Z</time>
      </trkpt>
      <trkpt lat="51.223980336099" lon="4.461293851451">
        <ele>0</ele>
        <time>2019-05-26T19:28:06Z</time>
      </trkpt>
      <trkpt lat="51.223574484501" lon="4.461604736122">
        <ele>0</ele>
        <time>2019-05-26T19:28:41Z</time>
      </trkpt>
      <trkpt lat="51.223532323544" lon="4.461650752753">
        <ele>1</ele>
        <time>2019-05-26T19:28:47Z</time>
      </trkpt>
      <trkpt lat="51.223113982915" lon="4.461890391274">
        <ele>0</ele>
        <time>2019-05-26T19:29:27Z</time>
      </trkpt>
      <trkpt lat="51.222693379173" lon="4.462188284">
        <ele>0</ele>
        <time>2019-05-26T19:30:03Z</time>
      </trkpt>
      <trkpt lat="51.222587599595" lon="4.462321304753">
        <ele>0</ele>
        <time>2019-05-26T19:30:25Z</time>
      </trkpt>
      <trkpt lat="51.222202702747" lon="4.462637972935">
        <ele>0</ele>
        <time>2019-05-26T19:31:00Z</time>
      </trkpt>
      <trkpt lat="51.222218209262" lon="4.462670494707">
        <ele>0</ele>
        <time>2019-05-26T19:31:02Z</time>
      </trkpt>
      <trkpt lat="51.222261459866" lon="4.46274065121">
        <ele>0</ele>
        <time>2019-05-26T19:31:08Z</time>
      </trkpt>
      <trkpt lat="51.222433540273" lon="4.463014487883">
        <ele>0.6</ele>
        <time>2019-05-26T19:31:23Z</time>
      </trkpt>
      <trkpt lat="51.222573266546" lon="4.463227807238">
        <ele>0.2</ele>
        <time>2019-05-26T19:31:46Z</time>
      </trkpt>
      <trkpt lat="51.222794548706" lon="4.463433331426">
        <ele>1.6</ele>
        <time>2019-05-26T19:32:08Z</time>
      </trkpt>
      <trkpt lat="51.2228973108" lon="4.463668359902">
        <ele>6.4</ele>
        <time>2019-05-26T19:32:36Z</time>
      </trkpt>
      <trkpt lat="51.222797147095" lon="4.463646483143">
        <ele>5.6</ele>
        <time>2019-05-26T19:32:54Z</time>
      </trkpt>
      <trkpt lat="51.222737803243" lon="4.463641621641">
        <ele>4</ele>
        <time>2019-05-26T19:32:57Z</time>
      </trkpt>
      <trkpt lat="51.222616433331" lon="4.463563083238">
        <ele>1.2</ele>
        <time>2019-05-26T19:33:05Z</time>
      </trkpt>
      <trkpt lat="51.222547198837" lon="4.463439366394">
        <ele>0</ele>
        <time>2019-05-26T19:33:15Z</time>
      </trkpt>
      <trkpt lat="51.222519203291" lon="4.463298969569">
        <ele>1.6</ele>
        <time>2019-05-26T19:33:27Z</time>
      </trkpt>
      <trkpt lat="51.222409316582" lon="4.463035442633">
        <ele>5.8</ele>
        <time>2019-05-26T19:33:54Z</time>
      </trkpt>
      <trkpt lat="51.222040345344" lon="4.462576952703">
        <ele>9</ele>
        <time>2019-05-26T19:34:28Z</time>
      </trkpt>
      <trkpt lat="51.221606330562" lon="4.462306049695">
        <ele>4.6</ele>
        <time>2019-05-26T19:35:09Z</time>
      </trkpt>
      <trkpt lat="51.221442715874" lon="4.46197538374">
        <ele>0</ele>
        <time>2019-05-26T19:35:40Z</time>
      </trkpt>
      <trkpt lat="51.221003755771" lon="4.46172644131">
        <ele>3.4</ele>
        <time>2019-05-26T19:36:13Z</time>
      </trkpt>
      <trkpt lat="51.220935443286" lon="4.461675227901">
        <ele>3.8</ele>
        <time>2019-05-26T19:36:22Z</time>
      </trkpt>
      <trkpt lat="51.220561023813" lon="4.461273148158">
        <ele>0</ele>
        <time>2019-05-26T19:36:52Z</time>
      </trkpt>
      <trkpt lat="51.220310237365" lon="4.460980955124">
        <ele>0.4</ele>
        <time>2019-05-26T19:37:28Z</time>
      </trkpt>
      <trkpt lat="51.22027880524" lon="4.461121603406">
        <ele>2.2</ele>
        <time>2019-05-26T19:37:35Z</time>
      </trkpt>
      <trkpt lat="51.220255587377" lon="4.461132332238">
        <ele>2.2</ele>
        <time>2019-05-26T19:37:38Z</time>
      </trkpt>
      <trkpt lat="51.220233459161" lon="4.461162758535">
        <ele>2.2</ele>
        <time>2019-05-26T19:37:41Z</time>
      </trkpt>
      <trkpt lat="51.220191130566" lon="4.461211625012">
        <ele>1.6</ele>
        <time>2019-05-26T19:37:46Z</time>
      </trkpt>
      <trkpt lat="51.219886280863" lon="4.461785282248">
        <ele>7.4</ele>
        <time>2019-05-26T19:38:27Z</time>
      </trkpt>
      <trkpt lat="51.21988401775" lon="4.461848565593">
        <ele>7.4</ele>
        <time>2019-05-26T19:38:32Z</time>
      </trkpt>
      <trkpt lat="51.219952665511" lon="4.462320047468">
        <ele>0.8</ele>
        <time>2019-05-26T19:38:51Z</time>
      </trkpt>
      <trkpt lat="51.219979906686" lon="4.463053882813">
        <ele>0</ele>
        <time>2019-05-26T19:39:23Z</time>
      </trkpt>
      <trkpt lat="51.219924418508" lon="4.463091182268">
        <ele>0</ele>
        <time>2019-05-26T19:39:32Z</time>
      </trkpt>
      <trkpt lat="51.219810676125" lon="4.463070646613">
        <ele>1.8</ele>
        <time>2019-05-26T19:39:41Z</time>
      </trkpt>
      <trkpt lat="51.219687462195" lon="4.463097552512">
        <ele>3.8</ele>
        <time>2019-05-26T19:39:56Z</time>
      </trkpt>
      <trkpt lat="51.219237521803" lon="4.463106185869">
        <ele>0</ele>
        <time>2019-05-26T19:40:37Z</time>
      </trkpt>
      <trkpt lat="51.218986567717" lon="4.463083387101">
        <ele>0</ele>
        <time>2019-05-26T19:41:06Z</time>
      </trkpt>
      <trkpt lat="51.21881784007" lon="4.463119345452">
        <ele>0</ele>
        <time>2019-05-26T19:41:28Z</time>
      </trkpt>
      <trkpt lat="51.21836689385" lon="4.463068215862">
        <ele>0</ele>
        <time>2019-05-26T19:42:07Z</time>
      </trkpt>
      <trkpt lat="51.217949810506" lon="4.463110628276">
        <ele>0</ele>
        <time>2019-05-26T19:42:58Z</time>
      </trkpt>
      <trkpt lat="51.217856519959" lon="4.463698031828">
        <ele>0</ele>
        <time>2019-05-26T19:44:17Z</time>
      </trkpt>
      <trkpt lat="51.217838498874" lon="4.463867597665">
        <ele>0</ele>
        <time>2019-05-26T19:44:42Z</time>
      </trkpt>
      <trkpt lat="51.217831122802" lon="4.464584753029">
        <ele>0</ele>
        <time>2019-05-26T19:45:26Z</time>
      </trkpt>
      <trkpt lat="51.217833637372" lon="4.465189674752">
        <ele>0</ele>
        <time>2019-05-26T19:46:25Z</time>
      </trkpt>
      <trkpt lat="51.217818047038" lon="4.465337782925">
        <ele>0</ele>
        <time>2019-05-26T19:46:39Z</time>
      </trkpt>
      <trkpt lat="51.217772533321" lon="4.466020237223">
        <ele>0</ele>
        <time>2019-05-26T19:47:32Z</time>
      </trkpt>
      <trkpt lat="51.217680751516" lon="4.466705122272">
        <ele>0</ele>
        <time>2019-05-26T19:48:19Z</time>
      </trkpt>
      <trkpt lat="51.217680667697" lon="4.466820792492">
        <ele>0</ele>
        <time>2019-05-26T19:48:34Z</time>
      </trkpt>
      <trkpt lat="51.217616629981" lon="4.467165791496">
        <ele>0</ele>
        <time>2019-05-26T19:49:11Z</time>
      </trkpt>
      <trkpt lat="51.217598105982" lon="4.467136035751">
        <ele>0</ele>
        <time>2019-05-26T19:49:13Z</time>
      </trkpt>
      <trkpt lat="51.217590310815" lon="4.466959093842">
        <ele>0</ele>
        <time>2019-05-26T19:49:29Z</time>
      </trkpt>
      <trkpt lat="51.217589304987" lon="4.466832862428">
        <ele>0</ele>
        <time>2019-05-26T19:50:33Z</time>
      </trkpt>
      <trkpt lat="51.2175915681" lon="4.467145674936">
        <ele>0</ele>
        <time>2019-05-26T19:51:26Z</time>
      </trkpt>
      <trkpt lat="51.217520573407" lon="4.467846820871">
        <ele>0</ele>
        <time>2019-05-26T19:52:00Z</time>
      </trkpt>
      <trkpt lat="51.217561979993" lon="4.468130967281">
        <ele>0</ele>
        <time>2019-05-26T19:52:45Z</time>
      </trkpt>
      <trkpt lat="51.217568517875" lon="4.468269017174">
        <ele>0</ele>
        <time>2019-05-26T19:52:56Z</time>
      </trkpt>
      <trkpt lat="51.217535828465" lon="4.468407318524">
        <ele>0</ele>
        <time>2019-05-26T19:53:13Z</time>
      </trkpt>
      <trkpt lat="51.21753121842" lon="4.468599934586">
        <ele>0</ele>
        <time>2019-05-26T19:53:30Z</time>
      </trkpt>
      <trkpt lat="51.217526776013" lon="4.468810404095">
        <ele>0</ele>
        <time>2019-05-26T19:53:44Z</time>
      </trkpt>
      <trkpt lat="51.217510515127" lon="4.468848960835">
        <ele>0</ele>
        <time>2019-05-26T19:53:47Z</time>
      </trkpt>
      <trkpt lat="51.217152021264" lon="4.469228744724">
        <ele>1.4</ele>
        <time>2019-05-26T19:54:43Z</time>
      </trkpt>
      <trkpt lat="51.216782547112" lon="4.469432257256">
        <ele>0</ele>
        <time>2019-05-26T19:55:27Z</time>
      </trkpt>
      <trkpt lat="51.216351465995" lon="4.469224218498">
        <ele>0</ele>
        <time>2019-05-26T19:56:16Z</time>
      </trkpt>
      <trkpt lat="51.216340234249" lon="4.469220279005">
        <ele>0</ele>
        <time>2019-05-26T19:56:17Z</time>
      </trkpt>
      <trkpt lat="51.2159151881" lon="4.468969576376">
        <ele>0</ele>
        <time>2019-05-26T19:56:58Z</time>
      </trkpt>
      <trkpt lat="51.21570228784" lon="4.468412347664">
        <ele>0</ele>
        <time>2019-05-26T19:57:48Z</time>
      </trkpt>
      <trkpt lat="51.215927677131" lon="4.467907422008">
        <ele>0</ele>
        <time>2019-05-26T19:58:26Z</time>
      </trkpt>
      <trkpt lat="51.216303856803" lon="4.467721679104">
        <ele>0</ele>
        <time>2019-05-26T19:59:12Z</time>
      </trkpt>
      <trkpt lat="51.216605689022" lon="4.467645319995">
        <ele>0</ele>
        <time>2019-05-26T19:59:41Z</time>
      </trkpt>
      <trkpt lat="51.217028974972" lon="4.467767863373">
        <ele>0</ele>
        <time>2019-05-26T20:00:09Z</time>
      </trkpt>
      <trkpt lat="51.217391743604" lon="4.468219647783">
        <ele>0</ele>
        <time>2019-05-26T20:00:37Z</time>
      </trkpt>
      <trkpt lat="51.217500792123" lon="4.468262395473">
        <ele>0</ele>
        <time>2019-05-26T20:00:59Z</time>
      </trkpt>
      <trkpt lat="51.217612941945" lon="4.467589412722">
        <ele>0</ele>
        <time>2019-05-26T20:01:35Z</time>
      </trkpt>
      <trkpt lat="51.217631465944" lon="4.467122792349">
        <ele>0</ele>
        <time>2019-05-26T20:01:58Z</time>
      </trkpt>
      <trkpt lat="51.217767001267" lon="4.467037548426">
        <ele>0</ele>
        <time>2019-05-26T20:02:14Z</time>
      </trkpt>
      <trkpt lat="51.218130608089" lon="4.466975773823">
        <ele>0</ele>
        <time>2019-05-26T20:03:28Z</time>
      </trkpt>
      <trkpt lat="51.218221216428" lon="4.46699027451">
        <ele>0</ele>
        <time>2019-05-26T20:03:40Z</time>
      </trkpt>
      <trkpt lat="51.218374102284" lon="4.467000584247">
        <ele>0</ele>
        <time>2019-05-26T20:04:11Z</time>
      </trkpt>
      <trkpt lat="51.218827227798" lon="4.466931265934">
        <ele>0</ele>
        <time>2019-05-26T20:05:00Z</time>
      </trkpt>
      <trkpt lat="51.218965696786" lon="4.466947694458">
        <ele>1.6</ele>
        <time>2019-05-26T20:05:19Z</time>
      </trkpt>
      <trkpt lat="51.219394766247" lon="4.466892876832">
        <ele>0</ele>
        <time>2019-05-26T20:06:02Z</time>
      </trkpt>
      <trkpt lat="51.219436172833" lon="4.466930427744">
        <ele>0</ele>
        <time>2019-05-26T20:06:19Z</time>
      </trkpt>
      <trkpt lat="51.219553519433" lon="4.466954986711">
        <ele>0</ele>
        <time>2019-05-26T20:06:31Z</time>
      </trkpt>
      <trkpt lat="51.219631890198" lon="4.466950711942">
        <ele>0</ele>
        <time>2019-05-26T20:06:37Z</time>
      </trkpt>
      <trkpt lat="51.219708249307" lon="4.466953058874">
        <ele>0</ele>
        <time>2019-05-26T20:06:54Z</time>
      </trkpt>
      <trkpt lat="51.219773795765" lon="4.466950711942">
        <ele>0</ele>
        <time>2019-05-26T20:07:03Z</time>
      </trkpt>
      <trkpt lat="51.22014637122" lon="4.466883656742">
        <ele>0</ele>
        <time>2019-05-26T20:07:38Z</time>
      </trkpt>
      <trkpt lat="51.220155004577" lon="4.466830683134">
        <ele>0</ele>
        <time>2019-05-26T20:07:42Z</time>
      </trkpt>
      <trkpt lat="51.220112675982" lon="4.466414186523">
        <ele>0.2</ele>
        <time>2019-05-26T20:08:14Z</time>
      </trkpt>
      <trkpt lat="51.220099767856" lon="4.466352831015">
        <ele>1.4</ele>
        <time>2019-05-26T20:08:19Z</time>
      </trkpt>
      <trkpt lat="51.220139581881" lon="4.466131632674">
        <ele>0.8</ele>
        <time>2019-05-26T20:08:34Z</time>
      </trkpt>
      <trkpt lat="51.220128433954" lon="4.465985871433">
        <ele>2</ele>
        <time>2019-05-26T20:08:52Z</time>
      </trkpt>
      <trkpt lat="51.220072023767" lon="4.465885707728">
        <ele>2.6</ele>
        <time>2019-05-26T20:09:03Z</time>
      </trkpt>
      <trkpt lat="51.220041513651" lon="4.465558226895">
        <ele>4.2</ele>
        <time>2019-05-26T20:09:24Z</time>
      </trkpt>
      <trkpt lat="51.220070179749" lon="4.46483612621">
        <ele>5.8</ele>
        <time>2019-05-26T20:10:04Z</time>
      </trkpt>
      <trkpt lat="51.220130948524" lon="4.464132800981">
        <ele>4.4</ele>
        <time>2019-05-26T20:10:40Z</time>
      </trkpt>
      <trkpt lat="51.219997843952" lon="4.463447915932">
        <ele>7.8</ele>
        <time>2019-05-26T20:11:18Z</time>
      </trkpt>
      <trkpt lat="51.219985187283" lon="4.463346243485">
        <ele>5.2</ele>
        <time>2019-05-26T20:11:25Z</time>
      </trkpt>
      <trkpt lat="51.21993347096" lon="4.462795301198">
        <ele>9.2</ele>
        <time>2019-05-26T20:12:05Z</time>
      </trkpt>
      <trkpt lat="51.219868595054" lon="4.462288531524">
        <ele>14.2</ele>
        <time>2019-05-26T20:12:32Z</time>
      </trkpt>
      <trkpt lat="51.219899608084" lon="4.461772457941">
        <ele>14.6</ele>
        <time>2019-05-26T20:12:59Z</time>
      </trkpt>
      <trkpt lat="51.220006896404" lon="4.461348752896">
        <ele>17.8</ele>
        <time>2019-05-26T20:13:27Z</time>
      </trkpt>
      <trkpt lat="51.22021845556" lon="4.460909122241">
        <ele>15.4</ele>
        <time>2019-05-26T20:14:03Z</time>
      </trkpt>
      <trkpt lat="51.220230693134" lon="4.460875343184">
        <ele>15</ele>
        <time>2019-05-26T20:14:05Z</time>
      </trkpt>
      <trkpt lat="51.220354745254" lon="4.460734275807">
        <ele>8.4</ele>
        <time>2019-05-26T20:14:20Z</time>
      </trkpt>
      <trkpt lat="51.220366563733" lon="4.460781214447">
        <ele>9.2</ele>
        <time>2019-05-26T20:14:22Z</time>
      </trkpt>
      <trkpt lat="51.220672083988" lon="4.461309693242">
        <ele>7.4</ele>
        <time>2019-05-26T20:15:05Z</time>
      </trkpt>
      <trkpt lat="51.22104407271" lon="4.461720657799">
        <ele>9.6</ele>
        <time>2019-05-26T20:15:52Z</time>
      </trkpt>
      <trkpt lat="51.221107523693" lon="4.461779498737">
        <ele>12.6</ele>
        <time>2019-05-26T20:16:00Z</time>
      </trkpt>
      <trkpt lat="51.221515889861" lon="4.462073871065">
        <ele>11.4</ele>
        <time>2019-05-26T20:16:51Z</time>
      </trkpt>
      <trkpt lat="51.221561319759" lon="4.46212374337">
        <ele>10</ele>
        <time>2019-05-26T20:16:56Z</time>
      </trkpt>
      <trkpt lat="51.221661232007" lon="4.462285262583">
        <ele>13.2</ele>
        <time>2019-05-26T20:17:09Z</time>
      </trkpt>
      <trkpt lat="51.222038668964" lon="4.462681726453">
        <ele>10</ele>
        <time>2019-05-26T20:17:48Z</time>
      </trkpt>
      <trkpt lat="51.222149561501" lon="4.462705950144">
        <ele>18.2</ele>
        <time>2019-05-26T20:18:00Z</time>
      </trkpt>
      <trkpt lat="51.222549294312" lon="4.462339493476">
        <ele>26.6</ele>
        <time>2019-05-26T20:18:36Z</time>
      </trkpt>
      <trkpt lat="51.222735288673" lon="4.462209322569">
        <ele>22.4</ele>
        <time>2019-05-26T20:18:58Z</time>
      </trkpt>
      <trkpt lat="51.223116497485" lon="4.461912016576">
        <ele>16.8</ele>
        <time>2019-05-26T20:19:26Z</time>
      </trkpt>
      <trkpt lat="51.223509440957" lon="4.461576489119">
        <ele>12.8</ele>
        <time>2019-05-26T20:20:20Z</time>
      </trkpt>
      <trkpt lat="51.223572137569" lon="4.461535585447">
        <ele>13.8</ele>
        <time>2019-05-26T20:20:27Z</time>
      </trkpt>
      <trkpt lat="51.223737847732" lon="4.461469368437">
        <ele>13.2</ele>
        <time>2019-05-26T20:20:52Z</time>
      </trkpt>
      <trkpt lat="51.223913113261" lon="4.461342885566">
        <ele>12.8</ele>
        <time>2019-05-26T20:21:13Z</time>
      </trkpt>
      <trkpt lat="51.224333549365" lon="4.461059828803">
        <ele>11.6</ele>
        <time>2019-05-26T20:21:50Z</time>
      </trkpt>
      <trkpt lat="51.224493476017" lon="4.460872744795">
        <ele>12.6</ele>
        <time>2019-05-26T20:22:14Z</time>
      </trkpt>
      <trkpt lat="51.224912990112" lon="4.460599746312">
        <ele>18.2</ele>
        <time>2019-05-26T20:22:50Z</time>
      </trkpt>
      <trkpt lat="51.225060930647" lon="4.460498409141">
        <ele>15.6</ele>
        <time>2019-05-26T20:23:07Z</time>
      </trkpt>
      <trkpt lat="51.225475918516" lon="4.460208060125">
        <ele>11.4</ele>
        <time>2019-05-26T20:23:45Z</time>
      </trkpt>
      <trkpt lat="51.225894175326" lon="4.459896840178">
        <ele>10</ele>
        <time>2019-05-26T20:24:21Z</time>
      </trkpt>
      <trkpt lat="51.226120318988" lon="4.459765747262">
        <ele>4.6</ele>
        <time>2019-05-26T20:24:48Z</time>
      </trkpt>
      <trkpt lat="51.226177064451" lon="4.459851242642">
        <ele>4.2</ele>
        <time>2019-05-26T20:24:56Z</time>
      </trkpt>
      <trkpt lat="51.226311426308" lon="4.459912262874">
        <ele>2.6</ele>
        <time>2019-05-26T20:25:20Z</time>
      </trkpt>
      <trkpt lat="51.22632299333" lon="4.459891978676">
        <ele>2.4</ele>
        <time>2019-05-26T20:25:22Z</time>
      </trkpt>
      <trkpt lat="51.226309163195" lon="4.459665248281">
        <ele>1.8</ele>
        <time>2019-05-26T20:25:41Z</time>
      </trkpt>
      <trkpt lat="51.226241856538" lon="4.459510602226">
        <ele>4.4</ele>
        <time>2019-05-26T20:25:56Z</time>
      </trkpt>
      <trkpt lat="51.225956620481" lon="4.458948344374">
        <ele>10.6</ele>
        <time>2019-05-26T20:26:32Z</time>
      </trkpt>
      <trkpt lat="51.225940024319" lon="4.458879696613">
        <ele>11.4</ele>
        <time>2019-05-26T20:26:37Z</time>
      </trkpt>
      <trkpt lat="51.22630958229" lon="4.458478035965">
        <ele>2.2</ele>
        <time>2019-05-26T20:27:06Z</time>
      </trkpt>
      <trkpt lat="51.226321065493" lon="4.458468899694">
        <ele>2</ele>
        <time>2019-05-26T20:27:07Z</time>
      </trkpt>
      <trkpt lat="51.226714511879" lon="4.458107723623">
        <ele>5.8</ele>
        <time>2019-05-26T20:27:42Z</time>
      </trkpt>
      <trkpt lat="51.226891034693" lon="4.458004793891">
        <ele>5.4</ele>
        <time>2019-05-26T20:27:56Z</time>
      </trkpt>
      <trkpt lat="51.227094295768" lon="4.457914269371">
        <ele>2.8</ele>
        <time>2019-05-26T20:28:13Z</time>
      </trkpt>
      <trkpt lat="51.227516659709" lon="4.457644036915">
        <ele>3.8</ele>
        <time>2019-05-26T20:28:47Z</time>
      </trkpt>
      <trkpt lat="51.227835255728" lon="4.45753213855">
        <ele>0.6</ele>
        <time>2019-05-26T20:29:14Z</time>
      </trkpt>
      <trkpt lat="51.227855288469" lon="4.457522247908">
        <ele>0</ele>
        <time>2019-05-26T20:29:17Z</time>
      </trkpt>
      <trkpt lat="51.228261475343" lon="4.457225109553">
        <ele>4</ele>
        <time>2019-05-26T20:29:53Z</time>
      </trkpt>
      <trkpt lat="51.228282765369" lon="4.457212452884">
        <ele>4.8</ele>
        <time>2019-05-26T20:29:55Z</time>
      </trkpt>
      <trkpt lat="51.228470603748" lon="4.457218152576">
        <ele>4.6</ele>
        <time>2019-05-26T20:30:11Z</time>
      </trkpt>
      <trkpt lat="51.228565319218" lon="4.457922148357">
        <ele>0</ele>
        <time>2019-05-26T20:30:46Z</time>
      </trkpt>
      <trkpt lat="51.228636062454" lon="4.458092384746">
        <ele>0</ele>
        <time>2019-05-26T20:30:59Z</time>
      </trkpt>
      <trkpt lat="51.229096815497" lon="4.458077464964">
        <ele>9.6</ele>
        <time>2019-05-26T20:31:39Z</time>
      </trkpt>
      <trkpt lat="51.229528315709" lon="4.457921645443">
        <ele>10.6</ele>
        <time>2019-05-26T20:32:15Z</time>
      </trkpt>
      <trkpt lat="51.229796787966" lon="4.457862217772">
        <ele>9.4</ele>
        <time>2019-05-26T20:32:38Z</time>
      </trkpt>
      <trkpt lat="51.229781113813" lon="4.457917370674">
        <ele>7.8</ele>
        <time>2019-05-26T20:32:42Z</time>
      </trkpt>
      <trkpt lat="51.22965982772" lon="4.45790680948">
        <ele>6.4</ele>
        <time>2019-05-26T20:33:16Z</time>
      </trkpt>
    </trkseg>
  </trk>
</gpx>